Time;durP1;ratioP1;P1;durP2;ratioP2;P2;SDS_P1;SDS_P2;PMS_P1;PMS_P2;Temp;Humidity;BMP_temperature;BMP_pressure;BME280_temperature;BME280_humidity;BME280_pressure;Samples;Min_cycle;Max_cycle;Signal;HPM_P1;HPM_P2
2023/04/12 00:00:54;;;;;;;3.55;2.70;;;;;;;12.21;58.21;100330.03;4993444;28;20039;-87
2023/04/12 00:03:20;;;;;;;2.72;1.90;;;;;;;12.28;58.24;100336.50;4975832;28;20034;-86
2023/04/12 00:05:47;;;;;;;1.85;1.48;;;;;;;12.19;58.29;100318.06;4976030;28;20409;-88
2023/04/12 00:08:13;;;;;;;2.55;1.63;;;;;;;12.24;58.26;100339.38;4991817;28;20061;-87
2023/04/12 00:10:38;;;;;;;3.97;2.55;;;;;;;12.14;58.36;100328.72;4976267;28;20029;-86
2023/04/12 00:13:04;;;;;;;3.40;2.33;;;;;;;12.15;58.37;100345.94;4975629;28;20026;-86
2023/04/12 00:15:30;;;;;;;3.55;2.42;;;;;;;12.15;58.51;100340.75;4992053;28;20034;-87
2023/04/12 00:17:55;;;;;;;5.10;2.22;;;;;;;12.18;58.65;100348.34;4975783;28;20029;-87
2023/04/12 00:20:20;;;;;;;4.68;2.90;;;;;;;12.11;58.86;100339.28;4975617;28;20475;-88
2023/04/12 00:22:46;;;;;;;3.10;2.20;;;;;;;12.04;58.94;100340.56;4991330;28;20044;-87
2023/04/12 00:25:11;;;;;;;3.28;2.30;;;;;;;12.09;58.74;100335.94;4992043;28;20045;-87
2023/04/12 00:27:37;;;;;;;3.75;2.47;;;;;;;11.97;59.47;100332.31;4975329;28;20030;-87
2023/04/12 00:30:04;;;;;;;3.50;2.22;;;;;;;11.98;59.32;100335.75;4991808;28;20395;-87
2023/04/12 00:32:29;;;;;;;3.00;2.17;;;;;;;11.81;59.89;100304.81;4991096;28;20053;-88
2023/04/12 00:34:55;;;;;;;4.53;2.90;;;;;;;11.87;59.51;100312.22;4975319;28;20022;-86
2023/04/12 00:37:20;;;;;;;4.15;2.65;;;;;;;11.87;59.51;100326.00;4958940;28;20046;-87
2023/04/12 00:39:45;;;;;;;6.03;2.50;;;;;;;11.73;60.05;100298.28;4975270;28;20027;-87
2023/04/12 00:42:11;;;;;;;3.67;1.95;;;;;;;11.85;59.75;100316.66;4975067;28;20027;-87
2023/04/12 00:44:36;;;;;;;4.22;2.47;;;;;;;11.84;59.27;100299.44;4975160;28;20053;-87
2023/04/12 00:47:05;;;;;;;3.50;2.33;;;;;;;11.83;59.87;100302.97;4975060;28;20400;-87
2023/04/12 00:49:31;;;;;;;3.25;2.13;;;;;;;11.96;59.52;100330.66;4975184;28;20026;-87
2023/04/12 00:52:03;;;;;;;5.40;2.33;;;;;;;11.99;59.47;100314.06;4975168;28;20030;-87
2023/04/12 00:54:29;;;;;;;2.80;1.88;;;;;;;12.09;59.39;100322.97;4974665;28;20492;-87
2023/04/12 00:56:56;;;;;;;3.65;2.17;;;;;;;12.08;59.33;100316.13;4975054;28;20031;-87
2023/04/12 00:59:22;;;;;;;7.68;2.50;;;;;;;12.14;59.46;100322.69;4975074;28;20022;-87
2023/04/12 01:01:48;;;;;;;1.45;1.20;;;;;;;12.10;59.63;100322.06;4974835;28;20030;-87
2023/04/12 01:04:13;;;;;;;4.25;2.65;;;;;;;12.01;59.35;100292.34;4990965;28;20038;-87
2023/04/12 01:07:14;;;;;;;4.57;2.88;;;;;;;12.04;59.42;100307.69;4974769;28;20037;-87
2023/04/12 01:10:02;;;;;;;3.97;2.90;;;;;;;12.10;59.23;100310.88;4970265;28;20070;-87
2023/04/12 01:12:41;;;;;;;3.78;2.17;;;;;;;12.20;59.25;100314.56;4991181;28;20472;-87
2023/04/12 01:15:08;;;;;;;2.90;2.13;;;;;;;12.16;59.48;100305.28;4991144;28;20042;-87
2023/04/12 01:17:45;;;;;;;3.80;2.47;;;;;;;12.24;59.43;100311.69;4974572;28;20042;-86
2023/04/12 01:20:15;;;;;;;3.83;2.28;;;;;;;12.20;58.86;100302.44;4975292;28;20081;-86
2023/04/12 01:22:59;;;;;;;3.35;2.58;;;;;;;12.31;59.38;100312.16;4990764;28;20508;-87
2023/04/12 01:25:52;;;;;;;3.20;2.08;;;;;;;12.25;59.43;100318.53;4991484;28;20069;-87
2023/04/12 01:28:19;;;;;;;;;;;;;;;12.25;59.31;100315.09;4991113;28;20145;-87
2023/04/12 01:30:45;;;;;;;4.13;2.60;;;;;;;12.13;59.49;100305.47;4990525;28;20450;-86
2023/04/12 01:33:11;;;;;;;4.90;2.45;;;;;;;12.13;59.98;100311.50;4990314;28;20078;-88
2023/04/12 01:35:36;;;;;;;3.65;2.53;;;;;;;12.01;59.78;100279.38;4974409;28;20105;-87
2023/04/12 01:38:02;;;;;;;6.70;3.63;;;;;;;12.05;60.19;100277.41;4974042;28;20117;-86
2023/04/12 01:40:28;;;;;;;8.73;1.70;;;;;;;12.01;60.33;100284.56;4974225;28;20588;-86
2023/04/12 01:43:12;;;;;;;10.85;2.80;;;;;;;12.15;60.12;100298.44;4989975;28;20042;-87
2023/04/12 01:45:38;;;;;;;3.63;2.50;;;;;;;12.11;60.28;100286.59;4974239;28;20055;-87
2023/04/12 01:48:07;;;;;;;3.95;2.42;;;;;;;12.20;60.09;100291.22;4973597;28;20530;-87
2023/04/12 01:50:47;;;;;;;6.07;3.47;;;;;;;12.24;59.67;100288.34;4974117;28;20026;-87
2023/04/12 01:53:17;;;;;;;3.60;2.38;;;;;;;12.28;59.88;100289.81;4990415;28;20503;-87
2023/04/12 01:55:44;;;;;;;3.65;2.47;;;;;;;12.31;59.90;100296.59;4974707;28;20468;-86
2023/04/12 01:58:10;;;;;;;4.40;2.17;;;;;;;12.14;60.06;100292.41;4990291;28;20495;-87
2023/04/12 02:00:36;;;;;;;3.75;2.00;;;;;;;12.14;60.48;100289.00;4974410;28;20031;-88
2023/04/12 02:03:01;;;;;;;3.65;2.67;;;;;;;12.12;60.32;100291.69;4989909;28;20034;-87
2023/04/12 02:05:27;;;;;;;4.25;2.35;;;;;;;12.14;60.46;100300.19;4974091;28;20527;-87
2023/04/12 02:07:52;;;;;;;6.00;2.92;;;;;;;12.08;60.31;100295.38;4977211;28;20475;-86
2023/04/12 02:10:28;;;;;;;4.35;3.10;;;;;;;12.03;61.05;100303.44;4994169;28;20096;-87
2023/04/12 02:12:54;;;;;;;4.68;2.78;;;;;;;12.04;60.54;100309.47;4978344;28;20034;-87
2023/04/12 02:15:20;;;;;;;5.13;3.20;;;;;;;11.57;61.40;100265.59;4978050;28;20081;-86
2023/04/12 02:17:45;;;;;;;5.13;2.65;;;;;;;11.84;61.48;100308.06;4977968;28;20031;-88
2023/04/12 02:20:11;;;;;;;8.90;3.70;;;;;;;11.78;61.52;100321.31;4994097;28;20038;-88
2023/04/12 02:22:37;;;;;;;4.55;3.05;;;;;;;11.71;61.94;100317.44;4994938;28;20041;-88
2023/04/12 02:25:05;;;;;;;4.15;2.35;;;;;;;11.58;61.95;100309.53;4993992;28;20045;-86
2023/04/12 02:27:30;;;;;;;3.33;2.35;;;;;;;11.61;61.94;100322.34;4977964;28;20403;-87
2023/04/12 02:29:57;;;;;;;3.50;2.60;;;;;;;11.50;62.25;100311.72;4978010;28;20030;-87
2023/04/12 02:32:23;;;;;;;4.55;3.05;;;;;;;11.37;62.05;100285.72;4977228;28;20409;-87
2023/04/12 02:34:50;;;;;;;5.25;2.97;;;;;;;11.50;62.51;100316.91;4993816;28;20488;-88
2023/04/12 02:37:17;;;;;;;4.07;2.67;;;;;;;11.46;62.57;100305.91;4977927;28;20117;-86
2023/04/12 02:39:43;;;;;;;3.90;2.50;;;;;;;11.40;62.27;100295.88;4977488;28;20037;-87
2023/04/12 02:42:09;;;;;;;5.38;2.85;;;;;;;11.55;61.79;100309.72;4977573;28;20492;-88
2023/04/12 02:44:34;;;;;;;6.30;3.13;;;;;;;11.46;61.90;100300.72;4961355;28;20022;-87
2023/04/12 02:47:00;;;;;;;2.65;2.03;;;;;;;11.47;61.75;100299.78;4977159;28;20030;-87
2023/04/12 02:49:25;;;;;;;4.75;3.10;;;;;;;11.68;61.39;100323.63;4977758;28;20045;-86
2023/04/12 02:51:51;;;;;;;5.85;2.63;;;;;;;11.49;61.85;100316.06;4961228;28;20034;-88
2023/04/12 02:54:16;;;;;;;3.67;1.55;;;;;;;11.46;62.44;100330.97;4977141;28;20034;-86
2023/04/12 02:56:42;;;;;;;4.10;3.33;;;;;;;11.47;62.30;100335.22;4961103;28;20030;-87
2023/04/12 02:59:08;;;;;;;3.03;2.35;;;;;;;11.44;62.16;100319.88;4977236;28;20038;-86
2023/04/12 03:01:33;;;;;;;5.53;3.70;;;;;;;11.49;62.31;100335.97;4976904;28;20026;-86
2023/04/12 03:04:00;;;;;;;4.50;3.00;;;;;;;11.55;62.44;100327.84;4976984;28;20088;-86
2023/04/12 03:06:26;;;;;;;6.28;2.17;;;;;;;11.44;62.44;100314.69;4977291;28;20509;-87
2023/04/12 03:08:52;;;;;;;4.15;3.28;;;;;;;11.46;62.22;100325.78;4993075;28;20030;-87
2023/04/12 03:11:17;;;;;;;5.18;2.92;;;;;;;11.42;62.48;100324.31;4993185;28;20041;-87
2023/04/12 03:13:42;;;;;;;5.63;3.75;;;;;;;11.44;62.20;100330.22;4993099;28;20476;-87
2023/04/12 03:16:22;;;;;;;5.75;3.17;;;;;;;11.43;62.05;100339.75;4992534;28;20025;-86
2023/04/12 03:18:49;;;;;;;6.53;3.38;;;;;;;11.31;61.93;100324.09;4976489;28;20034;-86
2023/04/12 03:21:15;;;;;;;5.07;3.10;;;;;;;11.43;61.58;100338.94;4992931;28;20034;-86
2023/04/12 03:23:41;;;;;;;6.22;3.40;;;;;;;11.37;61.84;100344.44;4993279;28;20034;-86
2023/04/12 03:26:06;;;;;;;3.33;2.13;;;;;;;11.49;61.15;100351.50;4992501;28;20476;-87
2023/04/12 03:28:32;;;;;;;3.38;2.40;;;;;;;11.33;61.31;100327.41;4976344;28;20085;-86
2023/04/12 03:30:57;;;;;;;5.10;2.97;;;;;;;11.44;60.96;100343.19;4976602;28;20034;-86
2023/04/12 03:33:23;;;;;;;3.95;2.65;;;;;;;11.39;60.95;100334.81;4992487;28;20074;-85
2023/04/12 03:35:48;;;;;;;3.55;2.40;;;;;;;11.44;60.83;100353.53;4995311;28;20495;-85
2023/04/12 03:38:14;;;;;;;5.53;2.55;;;;;;;11.35;60.39;100349.72;5012184;28;20037;-85
2023/04/12 03:40:40;;;;;;;4.85;2.80;;;;;;;11.33;60.00;100333.44;4995684;28;20164;-85
2023/04/12 03:43:06;;;;;;;5.40;3.05;;;;;;;11.43;60.07;100352.72;5012071;28;20112;-85
2023/04/12 03:45:31;;;;;;;5.85;2.85;;;;;;;11.51;60.21;100362.66;5011406;28;20022;-85
2023/04/12 03:47:57;;;;;;;4.68;3.08;;;;;;;11.46;59.41;100354.28;4995115;28;20034;-85
2023/04/12 03:50:22;;;;;;;5.53;3.10;;;;;;;11.50;59.33;100360.94;5028178;28;20041;-85
2023/04/12 03:52:47;;;;;;;4.95;3.00;;;;;;;11.57;59.22;100354.50;5011843;28;20030;-85
2023/04/12 03:55:17;;;;;;;4.90;2.78;;;;;;;11.45;59.27;100347.44;5008753;28;20022;-85
2023/04/12 03:57:42;;;;;;;4.22;2.25;;;;;;;11.38;59.50;100343.53;4994454;28;20033;-85
2023/04/12 04:00:08;;;;;;;2.33;1.55;;;;;;;11.42;59.06;100361.41;4978584;28;20824;-81
2023/04/12 04:02:34;;;;;;;2.70;1.88;;;;;;;11.28;60.12;100337.19;5011908;28;20018;-84
2023/04/12 04:05:01;;;;;;;3.58;2.33;;;;;;;11.45;59.21;100365.56;4994469;28;20037;-84
2023/04/12 04:07:26;;;;;;;2.70;1.75;;;;;;;11.35;59.32;100343.69;4976993;28;20026;-84
2023/04/12 04:09:53;;;;;;;3.80;1.50;;;;;;;11.45;58.79;100366.41;4995110;28;20037;-83
2023/04/12 04:12:19;;;;;;;2.53;1.90;;;;;;;11.13;58.45;100305.25;4995139;28;20061;-83
2023/04/12 04:14:44;;;;;;;2.72;1.45;;;;;;;11.49;58.31;100361.88;5011035;28;20034;-83
2023/04/12 04:17:10;;;;;;;3.20;1.92;;;;;;;11.46;56.97;100356.88;4995056;28;20030;-86
2023/04/12 04:19:35;;;;;;;2.95;1.90;;;;;;;11.46;56.05;100362.06;5010046;28;20049;-86
2023/04/12 04:22:01;;;;;;;1.85;1.55;;;;;;;11.42;55.14;100360.56;4992087;28;20495;-89
2023/04/12 04:24:26;;;;;;;2.72;1.45;;;;;;;11.41;54.45;100377.88;4994315;28;20022;-82
2023/04/12 04:26:53;;;;;;;2.05;1.27;;;;;;;11.43;54.68;100375.19;5010808;28;20037;-82
2023/04/12 04:29:19;;;;;;;8.32;4.95;;;;;;;11.39;54.70;100376.25;5009512;28;20470;-84
2023/04/12 04:31:44;;;;;;;2.50;1.70;;;;;;;11.42;54.63;100381.28;5027195;28;20057;-82
2023/04/12 04:34:10;;;;;;;1.63;1.23;;;;;;;11.44;54.10;100389.81;5010878;28;20063;-85
2023/04/12 04:36:36;;;;;;;3.60;2.13;;;;;;;11.39;54.59;100396.97;5010423;28;20483;-85
2023/04/12 04:39:03;;;;;;;4.30;2.67;;;;;;;11.44;54.45;100395.00;5031048;28;20028;-91
2023/04/12 04:41:33;;;;;;;5.05;2.65;;;;;;;11.29;54.51;100391.47;5014750;28;20030;-89
2023/04/12 04:44:03;;;;;;;3.95;2.28;;;;;;;11.19;55.19;100375.63;5000647;28;20100;-85
2023/04/12 04:46:29;;;;;;;1.55;1.10;;;;;;;11.26;55.14;100401.19;4994588;28;20451;-86
2023/04/12 04:48:54;;;;;;;2.00;1.20;;;;;;;11.13;55.19;100416.56;5010554;28;20088;-87
2023/04/12 04:51:20;;;;;;;14.55;2.53;;;;;;;11.13;55.53;100407.03;5008664;28;20032;-83
2023/04/12 04:53:45;;;;;;;2.05;1.20;;;;;;;11.16;55.13;100427.59;5010462;28;20509;-91
2023/04/12 04:56:11;;;;;;;1.67;1.25;;;;;;;11.22;55.23;100435.94;5005802;28;20042;-88
2023/04/12 04:58:36;;;;;;;2.20;1.50;;;;;;;11.17;55.39;100429.25;4996123;28;20026;-86
2023/04/12 05:01:02;;;;;;;2.05;1.48;;;;;;;11.22;55.59;100434.19;4991926;28;20542;-87
2023/04/12 05:03:28;;;;;;;4.28;1.92;;;;;;;11.10;55.32;100422.72;4973238;28;20164;-84
2023/04/12 05:05:55;;;;;;;8.48;1.17;;;;;;;11.27;55.52;100454.66;4993444;28;20034;-83
2023/04/12 05:08:21;;;;;;;3.15;1.50;;;;;;;11.29;55.76;100455.38;4993008;28;20022;-83
2023/04/12 05:10:52;;;;;;;4.95;1.63;;;;;;;11.29;55.92;100456.22;4984314;28;20034;-94
2023/04/12 05:13:18;;;;;;;2.08;1.40;;;;;;;11.34;55.74;100458.56;5011356;28;20030;-90
2023/04/12 05:15:44;;;;;;;1.50;1.05;;;;;;;11.27;56.40;100433.94;5010987;28;20064;-92
2023/04/12 05:18:12;;;;;;;1.75;1.05;;;;;;;11.41;56.22;100426.25;5013966;28;20519;-90
2023/04/12 05:20:37;;;;;;;2.35;1.67;;;;;;;11.41;56.73;100444.38;4993729;28;20030;-92
2023/04/12 05:23:03;;;;;;;1.83;1.50;;;;;;;11.34;56.99;100440.44;4981527;28;20037;-86
2023/04/12 05:25:28;;;;;;;3.53;1.85;;;;;;;11.38;56.95;100436.75;5004180;28;20048;-87
2023/04/12 05:27:54;;;;;;;3.80;1.95;;;;;;;11.44;56.70;100426.91;4989068;28;20018;-90
2023/04/12 05:30:19;;;;;;;1.73;1.45;;;;;;;11.40;57.64;100440.09;5000430;28;20029;-87
2023/04/12 05:32:45;;;;;;;2.15;1.30;;;;;;;11.47;57.93;100431.06;4988057;28;20121;-93
2023/04/12 05:35:11;;;;;;;2.30;1.20;;;;;;;11.56;57.35;100435.75;5013412;28;20038;-84
2023/04/12 05:37:36;;;;;;;1.73;1.17;;;;;;;11.63;57.27;100433.66;4957230;28;20033;-84
2023/04/12 05:40:05;;;;;;;1.67;1.42;;;;;;;11.59;56.33;100417.44;4967351;28;20537;-82
2023/04/12 05:42:30;;;;;;;2.38;1.63;;;;;;;11.71;56.84;100440.06;5009700;28;20053;-85
2023/04/12 05:44:56;;;;;;;14.27;6.15;;;;;;;11.74;56.20;100428.69;4991773;28;20026;-88
2023/04/12 05:47:21;;;;;;;4.15;2.28;;;;;;;11.96;56.18;100441.28;4992786;28;20108;-90
2023/04/12 05:49:47;;;;;;;3.30;2.40;;;;;;;12.02;55.29;100427.97;4976834;28;20053;-85
2023/04/12 05:52:12;;;;;;;3.20;2.28;;;;;;;12.17;55.02;100419.28;5008582;28;20140;-89
2023/04/12 05:54:38;;;;;;;3.05;1.92;;;;;;;12.26;54.65;100420.53;5008391;28;20403;-87
2023/04/12 05:57:03;;;;;;;3.92;2.38;;;;;;;12.24;54.59;100412.00;5008432;28;20029;-82
2023/04/12 05:59:29;;;;;;;3.55;2.03;;;;;;;12.37;54.42;100419.88;5011763;28;20041;-85
2023/04/12 06:01:55;;;;;;;5.43;2.10;;;;;;;12.41;55.34;100419.63;5000327;28;20130;-85
2023/04/12 06:04:20;;;;;;;3.22;2.10;;;;;;;12.47;54.65;100405.44;4981606;28;20050;-89
2023/04/12 06:06:46;;;;;;;3.25;1.75;;;;;;;12.52;54.10;100400.81;4989126;28;20026;-85
2023/04/12 06:09:11;;;;;;;3.80;2.25;;;;;;;12.56;52.99;100404.88;4993171;28;20559;-87
2023/04/12 06:11:38;;;;;;;4.18;2.65;;;;;;;12.58;53.53;100400.41;5005262;28;20023;-86
2023/04/12 06:14:03;;;;;;;2.90;2.10;;;;;;;12.72;51.91;100408.22;4995171;28;20030;-85
2023/04/12 06:16:29;;;;;;;3.55;2.33;;;;;;;12.68;52.48;100405.88;4992297;28;20041;-84
2023/04/12 06:18:54;;;;;;;4.40;2.72;;;;;;;12.65;52.13;100414.69;5003517;28;20049;-84
2023/04/12 06:21:20;;;;;;;5.43;2.97;;;;;;;12.51;52.02;100389.59;4993520;28;20057;-84
2023/04/12 06:23:45;;;;;;;3.58;2.42;;;;;;;12.56;51.18;100405.72;5008487;28;20034;-81
2023/04/12 06:26:10;;;;;;;7.22;2.95;;;;;;;12.54;50.65;100398.94;5009151;28;20479;-90
2023/04/12 06:28:36;;;;;;;3.38;2.50;;;;;;;12.61;50.52;100395.06;5024067;28;20033;-81
2023/04/12 06:31:02;;;;;;;10.13;2.92;;;;;;;12.61;50.39;100395.06;4994766;28;20027;-92
2023/04/12 06:33:29;;;;;;;3.58;2.60;;;;;;;12.76;49.90;100382.91;5009205;28;20042;-92
2023/04/12 06:35:54;;;;;;;4.97;3.13;;;;;;;12.74;48.33;100377.81;4984842;28;20071;-85
2023/04/12 06:38:20;;;;;;;4.45;1.88;;;;;;;12.72;48.14;100371.88;5007094;28;20038;-89
2023/04/12 06:40:46;;;;;;;3.08;2.22;;;;;;;12.90;47.10;100375.09;5008742;28;20030;-88
2023/04/12 06:43:11;;;;;;;2.50;1.77;;;;;;;12.67;45.59;100344.53;5008027;28;20077;-88
2023/04/12 06:45:37;;;;;;;3.22;2.17;;;;;;;13.02;45.59;100378.69;4975701;28;20029;-91
2023/04/12 06:48:02;;;;;;;4.43;2.10;;;;;;;13.01;45.90;100382.22;5009183;28;20026;-85
2023/04/12 06:50:28;;;;;;;4.90;2.30;;;;;;;12.87;43.94;100337.16;5008774;28;20519;-85
2023/04/12 06:52:53;;;;;;;4.93;1.88;;;;;;;13.00;43.76;100341.59;5008911;28;20474;-85
2023/04/12 06:55:19;;;;;;;2.92;1.55;;;;;;;12.95;43.68;100341.88;5012112;28;20037;-85
2023/04/12 06:57:45;;;;;;;2.25;1.17;;;;;;;13.01;44.72;100356.25;5011808;28;20026;-86
2023/04/12 07:00:11;;;;;;;3.15;2.20;;;;;;;13.02;43.85;100355.31;5027510;28;20025;-84
2023/04/12 07:02:37;;;;;;;2.92;1.92;;;;;;;13.01;43.58;100325.09;5013049;28;20487;-87
2023/04/12 07:05:03;;;;;;;2.90;1.60;;;;;;;13.22;41.93;100354.06;4999174;28;20073;-90
2023/04/12 07:07:29;;;;;;;4.25;2.05;;;;;;;13.29;42.01;100361.38;4995591;28;20034;-86
2023/04/12 07:09:54;;;;;;;3.30;1.83;;;;;;;13.28;42.74;100336.34;5011800;28;20040;-85
2023/04/12 07:12:20;;;;;;;3.33;2.22;;;;;;;13.37;42.46;100340.09;4991705;28;20034;-87
2023/04/12 07:14:46;;;;;;;2.45;1.33;;;;;;;13.38;41.16;100337.41;5000724;28;20433;-91
2023/04/12 07:17:11;;;;;;;3.10;1.55;;;;;;;13.66;41.51;100357.19;5011620;28;20553;-86
2023/04/12 07:19:38;;;;;;;7.40;1.50;;;;;;;13.62;41.46;100365.31;5012288;28;20041;-85
2023/04/12 07:22:03;;;;;;;3.10;1.48;;;;;;;13.71;41.55;100378.53;5010530;28;20499;-85
2023/04/12 07:24:29;;;;;;;1.48;1.17;;;;;;;13.58;41.61;100349.09;4994750;28;20026;-89
2023/04/12 07:26:54;;;;;;;5.65;1.40;;;;;;;13.67;41.73;100343.31;5027739;28;20144;-85
2023/04/12 07:29:20;;;;;;;2.72;1.48;;;;;;;13.69;42.95;100370.03;5011020;28;20037;-88
2023/04/12 07:31:45;;;;;;;2.42;1.73;;;;;;;13.81;42.96;100349.34;5010110;28;20478;-86
2023/04/12 07:34:11;;;;;;;2.90;1.88;;;;;;;13.94;43.34;100340.59;5010719;28;20030;-86
2023/04/12 07:36:37;;;;;;;2.53;1.63;;;;;;;14.07;42.31;100353.63;4994441;28;20041;-84
2023/04/12 07:39:02;;;;;;;3.17;1.92;;;;;;;14.18;41.23;100352.91;5009516;28;20030;-85
2023/04/12 07:41:28;;;;;;;5.18;2.22;;;;;;;14.16;42.99;100352.16;4998832;28;20038;-86
2023/04/12 07:43:53;;;;;;;2.92;1.95;;;;;;;14.23;43.69;100349.03;5026419;28;20045;-91
2023/04/12 07:46:19;;;;;;;3.22;1.67;;;;;;;14.31;43.96;100345.91;4992250;28;20392;-84
2023/04/12 07:48:45;;;;;;;2.28;1.48;;;;;;;14.45;44.28;100343.22;4982731;28;20034;-85
2023/04/12 07:51:10;;;;;;;4.35;2.08;;;;;;;14.31;43.88;100353.72;4998062;28;20041;-87
2023/04/12 07:53:36;;;;;;;3.58;1.40;;;;;;;14.21;44.58;100350.91;4996515;28;20112;-89
2023/04/12 07:56:04;;;;;;;2.95;2.03;;;;;;;14.16;44.16;100357.34;4997570;28;20023;-84
2023/04/12 07:58:29;;;;;;;2.97;2.42;;;;;;;14.18;44.24;100358.09;5000601;28;20415;-82
2023/04/12 08:00:56;;;;;;;2.13;1.73;;;;;;;14.09;43.82;100343.94;5027540;28;20040;-83
2023/04/12 08:03:21;;;;;;;3.72;1.38;;;;;;;14.27;43.54;100368.72;5001289;28;20057;-84
2023/04/12 08:05:52;;;;;;;6.55;1.90;;;;;;;14.02;44.31;100343.53;4993561;28;20038;-87
2023/04/12 08:08:18;;;;;;;4.63;2.45;;;;;;;14.10;44.37;100360.38;5008888;28;20030;-83
2023/04/12 08:10:43;;;;;;;3.25;1.80;;;;;;;14.27;43.85;100376.53;5010597;28;20030;-85
2023/04/12 08:13:09;;;;;;;3.33;1.73;;;;;;;14.32;43.93;100366.63;4989556;28;20045;-85
2023/04/12 08:15:35;;;;;;;2.20;1.10;;;;;;;13.97;42.92;100327.41;4996491;28;20030;-84
2023/04/12 08:18:01;;;;;;;2.35;1.42;;;;;;;14.31;42.83;100382.34;4975018;28;20551;-83
2023/04/12 08:20:26;;;;;;;2.83;2.08;;;;;;;14.25;43.13;100394.00;4977433;28;20113;-82
2023/04/12 08:22:53;;;;;;;1.35;0.73;;;;;;;14.23;44.14;100379.44;5007895;28;20038;-86
2023/04/12 08:25:19;;;;;;;2.95;1.48;;;;;;;14.18;42.51;100410.13;5007782;28;20041;-92
2023/04/12 08:27:45;;;;;;;1.58;1.15;;;;;;;14.09;43.80;100395.97;5011297;28;20025;-90
2023/04/12 08:30:11;;;;;;;4.75;1.92;;;;;;;13.84;43.49;100393.31;5010889;28;20026;-91
2023/04/12 08:32:37;;;;;;;1.85;1.63;;;;;;;13.70;44.13;100383.84;5011103;28;20057;-88
2023/04/12 08:35:03;;;;;;;2.72;1.80;;;;;;;13.72;45.11;100405.38;4993718;28;20466;-86
2023/04/12 08:37:29;;;;;;;4.10;2.17;;;;;;;13.64;45.00;100373.84;5024075;28;20039;-85
2023/04/12 08:39:54;;;;;;;2.58;1.80;;;;;;;13.95;44.65;100409.88;5027372;28;20030;-89
2023/04/12 08:42:20;;;;;;;2.00;1.67;;;;;;;13.99;44.62;100387.97;4997100;28;20090;-84
2023/04/12 08:44:45;;;;;;;2.88;2.03;;;;;;;14.10;43.84;100383.81;5009856;28;20041;-92
2023/04/12 08:47:11;;;;;;;2.38;1.77;;;;;;;14.18;42.77;100423.16;4992866;28;20034;-88
2023/04/12 08:49:36;;;;;;;1.77;1.33;;;;;;;13.94;42.94;100434.22;4990055;28;20038;-92
2023/04/12 08:52:04;;;;;;;3.20;2.28;;;;;;;14.12;42.90;100415.75;4995375;28;20479;-89
2023/04/12 08:54:30;;;;;;;2.00;1.40;;;;;;;13.97;43.63;100438.41;4998245;28;20035;-87
2023/04/12 08:56:59;;;;;;;2.45;1.95;;;;;;;14.03;43.70;100440.59;4996073;28;20033;-86
2023/04/12 08:59:26;;;;;;;3.95;2.70;;;;;;;13.78;43.53;100418.81;4989433;28;20044;-84
2023/04/12 09:01:52;;;;;;;3.22;1.70;;;;;;;13.92;43.59;100428.31;5011124;28;20040;-89
2023/04/12 09:04:19;;;;;;;6.85;2.30;;;;;;;14.01;44.01;100451.09;4992850;28;20117;-83
2023/04/12 09:06:44;;;;;;;3.67;2.50;;;;;;;13.69;43.83;100395.19;5008970;28;20057;-89
2023/04/12 09:09:09;;;;;;;2.38;1.85;;;;;;;14.15;43.45;100459.75;4990839;28;20033;-85
2023/04/12 09:11:35;;;;;;;1.67;1.38;;;;;;;13.96;43.67;100467.94;4975144;28;20026;-87
2023/04/12 09:14:01;;;;;;;5.22;2.70;;;;;;;13.88;42.79;100478.84;4993183;28;20041;-84
2023/04/12 09:16:34;;;;;;;4.47;2.45;;;;;;;13.86;43.84;100452.09;4991665;28;20030;-87
2023/04/12 09:19:01;;;;;;;2.75;1.88;;;;;;;14.05;43.33;100454.31;5007945;28;20030;-83
2023/04/12 09:21:27;;;;;;;2.05;1.85;;;;;;;13.90;43.14;100450.97;4992035;28;20338;-85
2023/04/12 09:24:08;;;;;;;1.52;1.42;;;;;;;13.91;43.68;100450.03;4992032;28;20036;-85
2023/04/12 09:26:34;;;;;;;3.25;2.03;;;;;;;13.84;42.76;100440.13;4993737;28;20483;-89
2023/04/12 09:29:00;;;;;;;3.97;1.77;;;;;;;13.69;43.29;100426.38;5009800;28;20033;-86
2023/04/12 09:31:26;;;;;;;3.70;2.40;;;;;;;13.77;43.07;100431.91;5008921;28;20042;-85
2023/04/12 09:33:52;;;;;;;3.78;2.28;;;;;;;13.75;43.91;100402.56;4991899;28;20153;-83
2023/04/12 09:36:17;;;;;;;2.42;1.63;;;;;;;14.10;42.54;100415.84;4977611;28;20038;-87
2023/04/12 09:39:03;;;;;;;3.60;2.13;;;;;;;14.22;42.27;100409.81;5008466;28;20018;-82
2023/04/12 09:41:30;;;;;;;1.85;1.38;;;;;;;14.20;43.14;100413.47;4993232;28;20052;-86
2023/04/12 09:43:59;;;;;;;3.20;1.60;;;;;;;14.20;42.11;100426.47;5008656;28;20403;-88
2023/04/12 09:46:25;;;;;;;3.03;1.77;;;;;;;14.22;41.35;100419.38;4992367;28;20029;-84
2023/04/12 09:48:51;;;;;;;4.10;2.15;;;;;;;14.36;41.37;100411.50;4992072;28;20022;-85
2023/04/12 09:51:43;;;;;;;5.03;1.40;;;;;;;14.48;41.69;100434.13;4992669;28;20088;-84
2023/04/12 09:54:09;;;;;;;4.22;2.25;;;;;;;14.56;41.51;100410.16;5005141;28;20037;-89
2023/04/12 09:56:35;;;;;;;2.83;1.85;;;;;;;14.74;41.83;100411.47;4992522;28;20026;-87
2023/04/12 09:59:04;;;;;;;2.08;1.25;;;;;;;14.81;39.95;100422.31;5008558;28;20117;-86
2023/04/12 10:01:34;;;;;;;7.78;2.10;;;;;;;14.55;41.69;100417.16;4976777;28;20491;-85
2023/04/12 10:03:59;;;;;;;2.88;1.75;;;;;;;14.64;41.43;100420.84;4992240;28;20414;-87
2023/04/12 10:06:26;;;;;;;3.22;1.63;;;;;;;14.69;40.67;100404.94;5008312;28;20034;-86
2023/04/12 10:08:51;;;;;;;2.38;1.25;;;;;;;14.93;40.06;100405.81;4991890;28;20060;-87
2023/04/12 10:11:17;;;;;;;3.92;1.55;;;;;;;14.62;39.73;100413.16;4992724;28;20026;-86
2023/04/12 10:13:42;;;;;;;2.70;1.60;;;;;;;14.77;40.70;100410.44;4993401;28;20038;-85
2023/04/12 10:16:08;;;;;;;2.40;1.52;;;;;;;14.84;39.61;100390.81;4989536;28;20018;-83
2023/04/12 10:18:35;;;;;;;1.73;1.30;;;;;;;15.00;39.55;100388.00;5024824;28;20062;-85
2023/04/12 10:21:00;;;;;;;2.63;1.58;;;;;;;15.12;39.81;100389.72;5009283;28;20033;-87
2023/04/12 10:23:26;;;;;;;0.90;0.73;;;;;;;15.02;39.22;100354.84;5024855;28;20573;-83
2023/04/12 10:25:52;;;;;;;2.25;1.48;;;;;;;15.04;38.79;100382.44;5005224;28;20496;-84
2023/04/12 10:28:21;;;;;;;2.25;1.58;;;;;;;14.97;39.67;100369.97;4996877;28;20037;-86
2023/04/12 10:30:49;;;;;;;1.85;1.45;;;;;;;15.13;38.39;100375.75;5013643;28;20039;-87
2023/04/12 10:33:18;;;;;;;2.00;1.45;;;;;;;15.12;39.18;100381.91;5028330;28;20053;-86
2023/04/12 10:36:09;;;;;;;1.60;1.23;;;;;;;15.21;38.81;100350.78;5012275;28;20037;-84
2023/04/12 10:38:45;;;;;;;2.47;1.40;;;;;;;15.29;38.04;100370.25;5012976;28;20030;-83
2023/04/12 10:41:18;;;;;;;3.03;1.48;;;;;;;15.33;37.96;100364.72;5012799;28;20034;-90
2023/04/12 10:43:44;;;;;;;1.75;1.02;;;;;;;15.48;37.98;100360.16;5009787;28;20032;-91
2023/04/12 10:46:38;;;;;;;1.80;1.10;;;;;;;15.60;38.61;100371.47;5010844;28;20022;-92
2023/04/12 10:49:10;;;;;;;1.35;0.98;;;;;;;15.56;38.88;100357.81;5012424;28;20075;-85
2023/04/12 10:51:35;;;;;;;1.27;1.00;;;;;;;15.78;36.70;100373.56;5012653;28;20034;-92
2023/04/12 10:54:07;;;;;;;3.05;1.23;;;;;;;15.87;36.40;100373.84;5011354;28;20392;-83
2023/04/12 10:56:37;;;;;;;1.30;0.80;;;;;;;15.72;36.37;100375.78;5011850;28;20034;-88
2023/04/12 10:59:03;;;;;;;4.18;1.20;;;;;;;15.52;35.38;100332.06;5027889;28;20034;-83
2023/04/12 11:01:30;;;;;;;3.10;1.20;;;;;;;15.60;35.83;100364.50;5011608;28;20030;-90
2023/04/12 11:04:12;;;;;;;2.70;1.27;;;;;;;15.52;36.84;100363.38;4990922;28;20037;-93
2023/04/12 11:06:52;;;;;;;0.97;0.87;;;;;;;15.55;36.47;100371.81;4993880;28;20491;-93
2023/04/12 11:09:33;;;;;;;2.72;1.48;;;;;;;15.69;36.84;100369.03;5011224;28;20026;-82
2023/04/12 11:12:04;;;;;;;1.52;1.23;;;;;;;15.75;37.39;100367.75;5012538;28;20022;-86
2023/04/12 11:14:33;;;;;;;1.25;0.77;;;;;;;15.70;37.69;100344.63;5012519;28;20029;-84
2023/04/12 11:17:04;;;;;;;2.90;1.30;;;;;;;16.14;36.72;100358.72;5010711;28;20109;-85
2023/04/12 11:19:30;;;;;;;1.23;0.85;;;;;;;16.09;36.42;100373.03;5014210;28;20565;-86
2023/04/12 11:21:56;;;;;;;1.45;1.00;;;;;;;16.03;36.19;100369.13;5011219;28;20482;-86
2023/04/12 11:24:22;;;;;;;1.90;1.17;;;;;;;16.05;35.55;100362.00;5028099;28;20029;-85